sensor_id;sensor_type;location;lat;lon;timestamp;P1;durP1;ratioP1;P2;durP2;ratioP2
30647;SDS011;17683;53.360;9.736;2022-12-18T00:01:13;22.45;;;11.65;;
30647;SDS011;17683;53.360;9.736;2022-12-18T00:03:41;19.40;;;11.02;;
30647;SDS011;17683;53.360;9.736;2022-12-18T00:06:08;20.63;;;12.07;;
30647;SDS011;17683;53.360;9.736;2022-12-18T00:08:34;21.80;;;11.10;;
30647;SDS011;17683;53.360;9.736;2022-12-18T00:11:03;24.25;;;12.30;;
30647;SDS011;17683;53.360;9.736;2022-12-18T00:13:30;21.15;;;11.02;;
30647;SDS011;17683;53.360;9.736;2022-12-18T00:16:01;25.00;;;12.32;;
30647;SDS011;17683;53.360;9.736;2022-12-18T00:18:28;20.48;;;11.18;;
30647;SDS011;17683;53.360;9.736;2022-12-18T00:20:53;22.55;;;11.45;;
30647;SDS011;17683;53.360;9.736;2022-12-18T00:23:23;22.60;;;11.05;;
30647;SDS011;17683;53.360;9.736;2022-12-18T00:25:48;20.38;;;11.30;;
30647;SDS011;17683;53.360;9.736;2022-12-18T00:28:14;28.17;;;11.38;;
30647;SDS011;17683;53.360;9.736;2022-12-18T00:30:40;22.13;;;12.50;;
30647;SDS011;17683;53.360;9.736;2022-12-18T00:33:05;24.75;;;13.05;;
30647;SDS011;17683;53.360;9.736;2022-12-18T00:35:31;23.40;;;11.57;;
30647;SDS011;17683;53.360;9.736;2022-12-18T00:37:57;23.05;;;12.13;;
30647;SDS011;17683;53.360;9.736;2022-12-18T00:40:22;22.33;;;11.07;;
30647;SDS011;17683;53.360;9.736;2022-12-18T00:42:48;24.80;;;11.30;;
30647;SDS011;17683;53.360;9.736;2022-12-18T00:45:27;24.27;;;12.38;;
30647;SDS011;17683;53.360;9.736;2022-12-18T00:47:54;17.65;;;10.77;;
30647;SDS011;17683;53.360;9.736;2022-12-18T00:50:21;17.02;;;10.35;;
30647;SDS011;17683;53.360;9.736;2022-12-18T00:52:48;22.45;;;12.35;;
30647;SDS011;17683;53.360;9.736;2022-12-18T00:55:14;21.83;;;10.75;;
30647;SDS011;17683;53.360;9.736;2022-12-18T00:57:40;21.65;;;11.10;;
30647;SDS011;17683;53.360;9.736;2022-12-18T01:00:07;20.63;;;10.60;;
30647;SDS011;17683;53.360;9.736;2022-12-18T01:02:35;19.73;;;11.70;;
30647;SDS011;17683;53.360;9.736;2022-12-18T01:05:00;21.08;;;10.55;;
30647;SDS011;17683;53.360;9.736;2022-12-18T01:07:26;22.00;;;10.18;;
30647;SDS011;17683;53.360;9.736;2022-12-18T01:09:52;21.00;;;11.75;;
30647;SDS011;17683;53.360;9.736;2022-12-18T01:12:17;32.03;;;11.30;;
30647;SDS011;17683;53.360;9.736;2022-12-18T01:14:43;23.10;;;11.80;;
30647;SDS011;17683;53.360;9.736;2022-12-18T01:17:09;22.60;;;11.63;;
30647;SDS011;17683;53.360;9.736;2022-12-18T01:19:34;22.30;;;12.27;;
30647;SDS011;17683;53.360;9.736;2022-12-18T01:22:00;19.40;;;10.93;;
30647;SDS011;17683;53.360;9.736;2022-12-18T01:24:26;22.02;;;10.60;;
30647;SDS011;17683;53.360;9.736;2022-12-18T01:26:52;19.63;;;11.00;;
30647;SDS011;17683;53.360;9.736;2022-12-18T01:29:18;22.00;;;11.23;;
30647;SDS011;17683;53.360;9.736;2022-12-18T01:31:43;19.52;;;10.65;;
30647;SDS011;17683;53.360;9.736;2022-12-18T01:34:09;19.77;;;11.18;;
30647;SDS011;17683;53.360;9.736;2022-12-18T01:36:35;19.45;;;11.35;;
30647;SDS011;17683;53.360;9.736;2022-12-18T01:39:05;20.45;;;11.07;;
30647;SDS011;17683;53.360;9.736;2022-12-18T01:41:32;23.33;;;12.52;;
30647;SDS011;17683;53.360;9.736;2022-12-18T01:49:57;21.08;;;10.93;;
30647;SDS011;17683;53.360;9.736;2022-12-18T01:52:28;22.92;;;10.75;;
30647;SDS011;17683;53.360;9.736;2022-12-18T01:54:57;21.92;;;11.88;;
30647;SDS011;17683;53.360;9.736;2022-12-18T01:57:24;19.08;;;10.63;;
30647;SDS011;17683;53.360;9.736;2022-12-18T01:59:52;19.23;;;10.63;;
30647;SDS011;17683;53.360;9.736;2022-12-18T02:02:20;23.35;;;10.70;;
30647;SDS011;17683;53.360;9.736;2022-12-18T02:04:46;23.08;;;11.05;;
30647;SDS011;17683;53.360;9.736;2022-12-18T02:09:45;15.75;;;9.82;;
30647;SDS011;17683;53.360;9.736;2022-12-18T02:12:22;21.35;;;10.70;;
30647;SDS011;17683;53.360;9.736;2022-12-18T02:17:34;18.35;;;11.05;;
30647;SDS011;17683;53.360;9.736;2022-12-18T02:28:44;23.25;;;10.52;;
30647;SDS011;17683;53.360;9.736;2022-12-18T02:31:27;20.30;;;10.60;;
30647;SDS011;17683;53.360;9.736;2022-12-18T02:33:56;17.35;;;9.82;;
30647;SDS011;17683;53.360;9.736;2022-12-18T02:36:25;18.52;;;10.57;;
30647;SDS011;17683;53.360;9.736;2022-12-18T02:38:53;20.77;;;10.63;;
30647;SDS011;17683;53.360;9.736;2022-12-18T02:41:23;22.85;;;10.45;;
30647;SDS011;17683;53.360;9.736;2022-12-18T02:43:55;21.63;;;11.48;;
30647;SDS011;17683;53.360;9.736;2022-12-18T02:46:27;18.23;;;11.73;;
30647;SDS011;17683;53.360;9.736;2022-12-18T02:49:02;16.83;;;10.15;;
30647;SDS011;17683;53.360;9.736;2022-12-18T02:51:56;16.42;;;9.23;;
30647;SDS011;17683;53.360;9.736;2022-12-18T03:00:24;17.15;;;9.23;;
30647;SDS011;17683;53.360;9.736;2022-12-18T03:03:10;19.03;;;9.37;;
30647;SDS011;17683;53.360;9.736;2022-12-18T03:05:56;21.05;;;9.90;;
30647;SDS011;17683;53.360;9.736;2022-12-18T03:08:38;17.08;;;8.95;;
30647;SDS011;17683;53.360;9.736;2022-12-18T03:11:08;19.48;;;9.70;;
30647;SDS011;17683;53.360;9.736;2022-12-18T03:13:37;20.83;;;9.75;;
30647;SDS011;17683;53.360;9.736;2022-12-18T03:16:10;16.67;;;9.65;;
30647;SDS011;17683;53.360;9.736;2022-12-18T03:18:43;18.02;;;9.68;;
30647;SDS011;17683;53.360;9.736;2022-12-18T03:21:17;13.80;;;8.68;;
30647;SDS011;17683;53.360;9.736;2022-12-18T03:23:47;17.15;;;9.07;;
30647;SDS011;17683;53.360;9.736;2022-12-18T03:26:17;23.65;;;10.05;;
30647;SDS011;17683;53.360;9.736;2022-12-18T03:28:58;18.15;;;9.55;;
30647;SDS011;17683;53.360;9.736;2022-12-18T03:31:28;14.55;;;8.85;;
30647;SDS011;17683;53.360;9.736;2022-12-18T03:33:57;18.20;;;9.95;;
30647;SDS011;17683;53.360;9.736;2022-12-18T03:36:25;15.82;;;8.68;;
30647;SDS011;17683;53.360;9.736;2022-12-18T03:38:58;16.15;;;8.93;;
30647;SDS011;17683;53.360;9.736;2022-12-18T03:46:26;19.38;;;9.48;;
30647;SDS011;17683;53.360;9.736;2022-12-18T03:49:16;18.98;;;9.57;;
30647;SDS011;17683;53.360;9.736;2022-12-18T03:51:48;23.15;;;9.60;;
30647;SDS011;17683;53.360;9.736;2022-12-18T03:54:40;16.08;;;8.50;;
30647;SDS011;17683;53.360;9.736;2022-12-18T03:57:15;15.93;;;8.07;;
30647;SDS011;17683;53.360;9.736;2022-12-18T03:59:44;19.10;;;8.63;;
30647;SDS011;17683;53.360;9.736;2022-12-18T04:02:12;17.38;;;8.80;;
30647;SDS011;17683;53.360;9.736;2022-12-18T04:04:40;15.55;;;8.00;;
30647;SDS011;17683;53.360;9.736;2022-12-18T04:07:08;15.93;;;8.93;;
30647;SDS011;17683;53.360;9.736;2022-12-18T04:09:35;17.83;;;10.73;;
30647;SDS011;17683;53.360;9.736;2022-12-18T04:12:03;17.48;;;9.32;;
30647;SDS011;17683;53.360;9.736;2022-12-18T04:14:29;17.77;;;9.30;;
30647;SDS011;17683;53.360;9.736;2022-12-18T04:16:55;15.50;;;8.80;;
30647;SDS011;17683;53.360;9.736;2022-12-18T04:19:20;13.98;;;8.65;;
30647;SDS011;17683;53.360;9.736;2022-12-18T04:21:46;16.27;;;8.30;;
30647;SDS011;17683;53.360;9.736;2022-12-18T04:24:12;15.65;;;8.45;;
30647;SDS011;17683;53.360;9.736;2022-12-18T04:26:37;17.02;;;8.52;;
30647;SDS011;17683;53.360;9.736;2022-12-18T04:29:03;18.60;;;9.80;;
30647;SDS011;17683;53.360;9.736;2022-12-18T04:31:29;13.38;;;8.43;;
30647;SDS011;17683;53.360;9.736;2022-12-18T04:33:54;15.90;;;7.88;;
30647;SDS011;17683;53.360;9.736;2022-12-18T04:36:20;17.73;;;9.13;;
30647;SDS011;17683;53.360;9.736;2022-12-18T04:38:46;19.25;;;9.10;;
30647;SDS011;17683;53.360;9.736;2022-12-18T04:41:15;16.15;;;8.25;;
30647;SDS011;17683;53.360;9.736;2022-12-18T04:43:40;14.75;;;8.35;;
30647;SDS011;17683;53.360;9.736;2022-12-18T04:46:06;17.92;;;9.40;;
30647;SDS011;17683;53.360;9.736;2022-12-18T04:48:33;18.38;;;8.70;;
30647;SDS011;17683;53.360;9.736;2022-12-18T04:50:59;18.10;;;9.13;;
30647;SDS011;17683;53.360;9.736;2022-12-18T04:53:25;19.23;;;10.05;;
30647;SDS011;17683;53.360;9.736;2022-12-18T04:55:50;30.25;;;9.80;;
30647;SDS011;17683;53.360;9.736;2022-12-18T04:58:26;12.85;;;7.43;;
30647;SDS011;17683;53.360;9.736;2022-12-18T05:00:52;18.98;;;9.20;;
30647;SDS011;17683;53.360;9.736;2022-12-18T05:03:17;14.68;;;8.15;;
30647;SDS011;17683;53.360;9.736;2022-12-18T05:05:43;18.25;;;8.90;;
30647;SDS011;17683;53.360;9.736;2022-12-18T05:08:09;18.23;;;8.90;;
30647;SDS011;17683;53.360;9.736;2022-12-18T05:10:34;16.48;;;8.70;;
30647;SDS011;17683;53.360;9.736;2022-12-18T05:13:00;19.40;;;8.43;;
30647;SDS011;17683;53.360;9.736;2022-12-18T05:15:30;16.08;;;7.78;;
30647;SDS011;17683;53.360;9.736;2022-12-18T05:17:57;16.17;;;8.80;;
30647;SDS011;17683;53.360;9.736;2022-12-18T05:20:23;15.18;;;8.60;;
30647;SDS011;17683;53.360;9.736;2022-12-18T05:22:50;17.17;;;9.38;;
30647;SDS011;17683;53.360;9.736;2022-12-18T05:25:17;12.73;;;6.82;;
30647;SDS011;17683;53.360;9.736;2022-12-18T05:27:43;16.20;;;8.48;;
30647;SDS011;17683;53.360;9.736;2022-12-18T05:30:10;17.35;;;8.07;;
30647;SDS011;17683;53.360;9.736;2022-12-18T05:32:36;16.80;;;8.82;;
30647;SDS011;17683;53.360;9.736;2022-12-18T05:35:02;16.00;;;8.32;;
30647;SDS011;17683;53.360;9.736;2022-12-18T05:37:28;16.08;;;8.68;;
30647;SDS011;17683;53.360;9.736;2022-12-18T05:39:54;17.88;;;7.82;;
30647;SDS011;17683;53.360;9.736;2022-12-18T05:42:20;19.00;;;8.23;;
30647;SDS011;17683;53.360;9.736;2022-12-18T05:44:46;13.32;;;7.95;;
30647;SDS011;17683;53.360;9.736;2022-12-18T05:47:11;16.27;;;9.48;;
30647;SDS011;17683;53.360;9.736;2022-12-18T05:49:37;17.52;;;8.57;;
30647;SDS011;17683;53.360;9.736;2022-12-18T05:52:03;15.13;;;8.32;;
30647;SDS011;17683;53.360;9.736;2022-12-18T05:54:28;13.77;;;7.55;;
30647;SDS011;17683;53.360;9.736;2022-12-18T05:56:54;14.50;;;7.50;;
30647;SDS011;17683;53.360;9.736;2022-12-18T05:59:20;14.52;;;7.80;;
30647;SDS011;17683;53.360;9.736;2022-12-18T06:01:46;16.13;;;8.98;;
30647;SDS011;17683;53.360;9.736;2022-12-18T06:04:11;13.30;;;8.32;;
30647;SDS011;17683;53.360;9.736;2022-12-18T06:06:37;14.50;;;7.75;;
30647;SDS011;17683;53.360;9.736;2022-12-18T06:09:03;16.02;;;7.32;;
30647;SDS011;17683;53.360;9.736;2022-12-18T06:11:34;13.18;;;7.32;;
30647;SDS011;17683;53.360;9.736;2022-12-18T06:14:02;15.10;;;8.20;;
30647;SDS011;17683;53.360;9.736;2022-12-18T06:16:29;18.63;;;8.30;;
30647;SDS011;17683;53.360;9.736;2022-12-18T06:18:56;13.82;;;8.27;;
30647;SDS011;17683;53.360;9.736;2022-12-18T06:21:22;15.32;;;8.07;;
30647;SDS011;17683;53.360;9.736;2022-12-18T06:23:48;13.02;;;7.68;;
30647;SDS011;17683;53.360;9.736;2022-12-18T06:26:14;15.90;;;7.72;;
30647;SDS011;17683;53.360;9.736;2022-12-18T06:28:40;15.65;;;8.10;;
30647;SDS011;17683;53.360;9.736;2022-12-18T06:31:06;13.65;;;8.18;;
30647;SDS011;17683;53.360;9.736;2022-12-18T06:33:33;14.38;;;7.45;;
30647;SDS011;17683;53.360;9.736;2022-12-18T06:36:00;13.00;;;8.02;;
30647;SDS011;17683;53.360;9.736;2022-12-18T06:38:31;12.05;;;7.10;;
30647;SDS011;17683;53.360;9.736;2022-12-18T06:40:57;19.92;;;8.00;;
30647;SDS011;17683;53.360;9.736;2022-12-18T06:43:23;19.02;;;8.95;;
30647;SDS011;17683;53.360;9.736;2022-12-18T06:45:49;12.93;;;7.25;;
30647;SDS011;17683;53.360;9.736;2022-12-18T06:48:18;14.70;;;8.25;;
30647;SDS011;17683;53.360;9.736;2022-12-18T06:50:44;18.35;;;8.70;;
30647;SDS011;17683;53.360;9.736;2022-12-18T06:53:10;13.75;;;6.55;;
30647;SDS011;17683;53.360;9.736;2022-12-18T06:55:36;16.20;;;8.77;;
30647;SDS011;17683;53.360;9.736;2022-12-18T06:58:02;19.13;;;8.20;;
30647;SDS011;17683;53.360;9.736;2022-12-18T07:00:27;11.82;;;6.32;;
30647;SDS011;17683;53.360;9.736;2022-12-18T07:02:53;14.70;;;8.07;;
30647;SDS011;17683;53.360;9.736;2022-12-18T07:05:19;14.13;;;7.90;;
30647;SDS011;17683;53.360;9.736;2022-12-18T07:07:44;15.63;;;8.70;;
30647;SDS011;17683;53.360;9.736;2022-12-18T07:10:10;15.63;;;8.40;;
30647;SDS011;17683;53.360;9.736;2022-12-18T07:12:36;19.77;;;7.90;;
30647;SDS011;17683;53.360;9.736;2022-12-18T07:15:02;12.73;;;6.72;;
30647;SDS011;17683;53.360;9.736;2022-12-18T07:17:28;13.07;;;7.30;;
30647;SDS011;17683;53.360;9.736;2022-12-18T07:19:54;13.45;;;7.20;;
30647;SDS011;17683;53.360;9.736;2022-12-18T07:22:20;14.95;;;7.35;;
30647;SDS011;17683;53.360;9.736;2022-12-18T07:24:46;16.30;;;8.65;;
30647;SDS011;17683;53.360;9.736;2022-12-18T07:27:14;13.48;;;7.10;;
30647;SDS011;17683;53.360;9.736;2022-12-18T07:29:40;14.10;;;7.20;;
30647;SDS011;17683;53.360;9.736;2022-12-18T07:32:06;10.18;;;7.07;;
30647;SDS011;17683;53.360;9.736;2022-12-18T07:34:32;16.77;;;7.45;;
30647;SDS011;17683;53.360;9.736;2022-12-18T07:36:58;12.43;;;7.03;;
30647;SDS011;17683;53.360;9.736;2022-12-18T07:39:23;15.25;;;8.00;;
30647;SDS011;17683;53.360;9.736;2022-12-18T07:41:49;15.15;;;7.32;;
30647;SDS011;17683;53.360;9.736;2022-12-18T07:44:35;13.50;;;7.35;;
30647;SDS011;17683;53.360;9.736;2022-12-18T07:47:01;17.17;;;8.10;;
30647;SDS011;17683;53.360;9.736;2022-12-18T07:49:27;18.50;;;6.95;;
30647;SDS011;17683;53.360;9.736;2022-12-18T07:51:54;15.75;;;8.43;;
30647;SDS011;17683;53.360;9.736;2022-12-18T07:54:23;15.05;;;8.35;;
30647;SDS011;17683;53.360;9.736;2022-12-18T07:56:50;22.15;;;9.52;;
30647;SDS011;17683;53.360;9.736;2022-12-18T07:59:16;19.40;;;9.02;;
30647;SDS011;17683;53.360;9.736;2022-12-18T08:01:42;15.85;;;8.30;;
30647;SDS011;17683;53.360;9.736;2022-12-18T08:04:09;17.08;;;8.55;;
30647;SDS011;17683;53.360;9.736;2022-12-18T08:06:34;17.85;;;8.65;;
30647;SDS011;17683;53.360;9.736;2022-12-18T08:09:00;17.83;;;9.55;;
30647;SDS011;17683;53.360;9.736;2022-12-18T08:11:26;19.42;;;8.43;;
30647;SDS011;17683;53.360;9.736;2022-12-18T08:13:53;17.95;;;9.35;;
30647;SDS011;17683;53.360;9.736;2022-12-18T08:16:20;17.15;;;8.73;;
30647;SDS011;17683;53.360;9.736;2022-12-18T08:18:46;15.43;;;9.13;;
30647;SDS011;17683;53.360;9.736;2022-12-18T08:21:17;18.13;;;9.68;;
30647;SDS011;17683;53.360;9.736;2022-12-18T08:24:01;16.42;;;8.65;;
30647;SDS011;17683;53.360;9.736;2022-12-18T08:26:29;18.90;;;9.15;;
30647;SDS011;17683;53.360;9.736;2022-12-18T08:28:56;14.23;;;8.50;;
30647;SDS011;17683;53.360;9.736;2022-12-18T08:31:23;16.42;;;8.45;;
30647;SDS011;17683;53.360;9.736;2022-12-18T08:33:50;15.85;;;9.07;;
30647;SDS011;17683;53.360;9.736;2022-12-18T08:36:17;18.08;;;9.23;;
30647;SDS011;17683;53.360;9.736;2022-12-18T08:38:44;21.10;;;9.52;;
30647;SDS011;17683;53.360;9.736;2022-12-18T08:41:10;17.00;;;8.32;;
30647;SDS011;17683;53.360;9.736;2022-12-18T08:43:37;17.15;;;8.82;;
30647;SDS011;17683;53.360;9.736;2022-12-18T08:46:23;22.10;;;9.43;;
30647;SDS011;17683;53.360;9.736;2022-12-18T08:48:51;17.95;;;9.65;;
30647;SDS011;17683;53.360;9.736;2022-12-18T08:51:17;15.13;;;8.85;;
30647;SDS011;17683;53.360;9.736;2022-12-18T08:53:44;18.08;;;8.13;;
30647;SDS011;17683;53.360;9.736;2022-12-18T08:56:10;17.23;;;9.40;;
30647;SDS011;17683;53.360;9.736;2022-12-18T08:58:37;14.73;;;7.95;;
30647;SDS011;17683;53.360;9.736;2022-12-18T09:01:03;17.40;;;8.55;;
30647;SDS011;17683;53.360;9.736;2022-12-18T09:03:30;18.38;;;8.68;;
30647;SDS011;17683;53.360;9.736;2022-12-18T09:05:56;16.52;;;8.38;;
30647;SDS011;17683;53.360;9.736;2022-12-18T09:08:22;16.45;;;8.25;;
30647;SDS011;17683;53.360;9.736;2022-12-18T09:10:48;17.10;;;8.63;;
30647;SDS011;17683;53.360;9.736;2022-12-18T09:13:15;15.43;;;9.00;;
30647;SDS011;17683;53.360;9.736;2022-12-18T09:15:42;13.50;;;7.43;;
30647;SDS011;17683;53.360;9.736;2022-12-18T09:18:10;20.77;;;8.40;;
30647;SDS011;17683;53.360;9.736;2022-12-18T09:20:36;19.85;;;9.35;;
30647;SDS011;17683;53.360;9.736;2022-12-18T09:23:03;18.85;;;9.02;;
30647;SDS011;17683;53.360;9.736;2022-12-18T09:25:29;13.45;;;7.93;;
30647;SDS011;17683;53.360;9.736;2022-12-18T09:28:02;17.20;;;8.77;;
30647;SDS011;17683;53.360;9.736;2022-12-18T09:30:29;16.65;;;7.85;;
30647;SDS011;17683;53.360;9.736;2022-12-18T09:32:54;16.50;;;8.15;;
30647;SDS011;17683;53.360;9.736;2022-12-18T09:35:21;21.45;;;8.77;;
30647;SDS011;17683;53.360;9.736;2022-12-18T09:37:47;15.13;;;8.63;;
30647;SDS011;17683;53.360;9.736;2022-12-18T09:40:16;14.32;;;8.32;;
30647;SDS011;17683;53.360;9.736;2022-12-18T09:42:45;15.63;;;7.90;;
30647;SDS011;17683;53.360;9.736;2022-12-18T09:45:16;17.77;;;8.18;;
30647;SDS011;17683;53.360;9.736;2022-12-18T09:47:43;16.73;;;9.82;;
30647;SDS011;17683;53.360;9.736;2022-12-18T09:50:19;15.48;;;8.40;;
30647;SDS011;17683;53.360;9.736;2022-12-18T09:52:59;14.32;;;7.38;;
30647;SDS011;17683;53.360;9.736;2022-12-18T09:55:37;16.05;;;8.18;;
30647;SDS011;17683;53.360;9.736;2022-12-18T10:00:45;14.25;;;7.90;;
30647;SDS011;17683;53.360;9.736;2022-12-18T10:03:14;14.27;;;7.80;;
30647;SDS011;17683;53.360;9.736;2022-12-18T10:08:33;15.15;;;8.23;;
30647;SDS011;17683;53.360;9.736;2022-12-18T10:11:47;14.52;;;7.53;;
30647;SDS011;17683;53.360;9.736;2022-12-18T10:17:16;12.73;;;6.63;;
30647;SDS011;17683;53.360;9.736;2022-12-18T10:20:17;14.95;;;7.57;;
30647;SDS011;17683;53.360;9.736;2022-12-18T10:23:07;13.57;;;7.38;;
30647;SDS011;17683;53.360;9.736;2022-12-18T10:25:51;13.52;;;7.80;;
30647;SDS011;17683;53.360;9.736;2022-12-18T10:28:26;15.88;;;8.00;;
30647;SDS011;17683;53.360;9.736;2022-12-18T10:30:54;13.70;;;7.53;;
30647;SDS011;17683;53.360;9.736;2022-12-18T10:33:22;16.45;;;8.88;;
30647;SDS011;17683;53.360;9.736;2022-12-18T10:35:52;16.17;;;7.72;;
30647;SDS011;17683;53.360;9.736;2022-12-18T10:40:57;14.52;;;7.35;;
30647;SDS011;17683;53.360;9.736;2022-12-18T10:43:30;13.10;;;7.07;;
30647;SDS011;17683;53.360;9.736;2022-12-18T10:46:01;12.93;;;7.35;;
30647;SDS011;17683;53.360;9.736;2022-12-18T10:48:31;16.70;;;7.78;;
30647;SDS011;17683;53.360;9.736;2022-12-18T10:50:59;12.23;;;7.15;;
30647;SDS011;17683;53.360;9.736;2022-12-18T10:53:26;14.55;;;7.03;;
30647;SDS011;17683;53.360;9.736;2022-12-18T10:56:00;11.68;;;7.22;;
30647;SDS011;17683;53.360;9.736;2022-12-18T10:58:31;17.65;;;7.47;;
30647;SDS011;17683;53.360;9.736;2022-12-18T11:06:09;15.85;;;8.50;;
30647;SDS011;17683;53.360;9.736;2022-12-18T11:08:37;16.45;;;7.07;;
30647;SDS011;17683;53.360;9.736;2022-12-18T11:11:04;12.35;;;6.72;;
30647;SDS011;17683;53.360;9.736;2022-12-18T11:13:39;12.57;;;6.57;;
30647;SDS011;17683;53.360;9.736;2022-12-18T11:16:05;9.60;;;6.20;;
30647;SDS011;17683;53.360;9.736;2022-12-18T11:18:32;13.20;;;5.82;;
30647;SDS011;17683;53.360;9.736;2022-12-18T11:21:09;13.25;;;6.38;;
30647;SDS011;17683;53.360;9.736;2022-12-18T11:23:37;13.35;;;6.90;;
30647;SDS011;17683;53.360;9.736;2022-12-18T11:26:11;13.45;;;6.80;;
30647;SDS011;17683;53.360;9.736;2022-12-18T11:28:51;10.18;;;6.05;;
30647;SDS011;17683;53.360;9.736;2022-12-18T11:31:32;11.02;;;6.65;;
30647;SDS011;17683;53.360;9.736;2022-12-18T11:36:49;10.43;;;6.07;;
30647;SDS011;17683;53.360;9.736;2022-12-18T11:42:02;10.82;;;5.93;;
30647;SDS011;17683;53.360;9.736;2022-12-18T11:50:12;9.07;;;5.75;;
30647;SDS011;17683;53.360;9.736;2022-12-18T11:52:44;11.35;;;5.50;;
30647;SDS011;17683;53.360;9.736;2022-12-18T11:55:12;10.40;;;5.75;;
30647;SDS011;17683;53.360;9.736;2022-12-18T12:00:15;10.23;;;5.45;;
30647;SDS011;17683;53.360;9.736;2022-12-18T12:11:13;9.60;;;4.97;;
30647;SDS011;17683;53.360;9.736;2022-12-18T12:13:52;8.07;;;5.40;;
30647;SDS011;17683;53.360;9.736;2022-12-18T12:16:37;12.10;;;5.95;;
30647;SDS011;17683;53.360;9.736;2022-12-18T12:21:41;8.85;;;4.68;;
30647;SDS011;17683;53.360;9.736;2022-12-18T12:29:55;7.93;;;4.38;;
30647;SDS011;17683;53.360;9.736;2022-12-18T12:38:28;8.85;;;4.65;;
30647;SDS011;17683;53.360;9.736;2022-12-18T12:41:12;9.27;;;4.28;;
30647;SDS011;17683;53.360;9.736;2022-12-18T12:44:01;8.07;;;4.35;;
30647;SDS011;17683;53.360;9.736;2022-12-18T12:46:31;7.38;;;3.80;;
30647;SDS011;17683;53.360;9.736;2022-12-18T12:49:03;9.20;;;4.72;;
30647;SDS011;17683;53.360;9.736;2022-12-18T12:51:40;6.43;;;3.35;;
30647;SDS011;17683;53.360;9.736;2022-12-18T12:54:13;5.50;;;3.38;;
30647;SDS011;17683;53.360;9.736;2022-12-18T13:08:08;6.85;;;3.95;;
30647;SDS011;17683;53.360;9.736;2022-12-18T13:13:06;6.45;;;3.13;;
30647;SDS011;17683;53.360;9.736;2022-12-18T13:15:44;5.65;;;2.75;;
30647;SDS011;17683;53.360;9.736;2022-12-18T13:18:19;7.55;;;3.50;;
30647;SDS011;17683;53.360;9.736;2022-12-18T13:25:51;4.72;;;3.10;;
30647;SDS011;17683;53.360;9.736;2022-12-18T13:29:00;8.40;;;3.45;;
30647;SDS011;17683;53.360;9.736;2022-12-18T13:31:10;6.05;;;2.28;;
30647;SDS011;17683;53.360;9.736;2022-12-18T13:33:40;12.73;;;3.38;;
30647;SDS011;17683;53.360;9.736;2022-12-18T13:38:41;6.17;;;2.90;;
30647;SDS011;17683;53.360;9.736;2022-12-18T13:43:46;8.32;;;3.75;;
30647;SDS011;17683;53.360;9.736;2022-12-18T13:48:49;6.78;;;3.25;;
30647;SDS011;17683;53.360;9.736;2022-12-18T13:51:17;8.85;;;3.95;;
30647;SDS011;17683;53.360;9.736;2022-12-18T13:53:46;7.32;;;3.67;;
30647;SDS011;17683;53.360;9.736;2022-12-18T13:56:22;7.28;;;4.00;;
30647;SDS011;17683;53.360;9.736;2022-12-18T14:01:33;12.57;;;4.45;;
30647;SDS011;17683;53.360;9.736;2022-12-18T14:04:09;6.05;;;3.63;;
30647;SDS011;17683;53.360;9.736;2022-12-18T14:06:44;8.63;;;3.70;;
30647;SDS011;17683;53.360;9.736;2022-12-18T14:09:13;6.85;;;3.70;;
30647;SDS011;17683;53.360;9.736;2022-12-18T14:11:53;7.30;;;4.13;;
30647;SDS011;17683;53.360;9.736;2022-12-18T14:14:47;8.27;;;4.15;;
30647;SDS011;17683;53.360;9.736;2022-12-18T14:19:41;5.13;;;3.78;;
30647;SDS011;17683;53.360;9.736;2022-12-18T14:22:13;10.75;;;5.20;;
30647;SDS011;17683;53.360;9.736;2022-12-18T14:24:42;7.65;;;4.75;;
30647;SDS011;17683;53.360;9.736;2022-12-18T14:27:22;10.23;;;4.65;;
30647;SDS011;17683;53.360;9.736;2022-12-18T14:29:49;8.45;;;4.50;;
30647;SDS011;17683;53.360;9.736;2022-12-18T14:32:16;13.32;;;5.55;;
30647;SDS011;17683;53.360;9.736;2022-12-18T14:34:45;9.70;;;5.45;;
30647;SDS011;17683;53.360;9.736;2022-12-18T14:37:13;14.32;;;6.20;;
30647;SDS011;17683;53.360;9.736;2022-12-18T14:39:40;11.32;;;6.10;;
30647;SDS011;17683;53.360;9.736;2022-12-18T14:42:16;16.05;;;7.35;;
30647;SDS011;17683;53.360;9.736;2022-12-18T14:44:42;16.65;;;7.60;;
30647;SDS011;17683;53.360;9.736;2022-12-18T14:47:12;16.25;;;7.47;;
30647;SDS011;17683;53.360;9.736;2022-12-18T14:49:40;12.55;;;7.05;;
30647;SDS011;17683;53.360;9.736;2022-12-18T14:52:19;20.27;;;7.40;;
30647;SDS011;17683;53.360;9.736;2022-12-18T14:54:52;15.40;;;7.55;;
30647;SDS011;17683;53.360;9.736;2022-12-18T14:57:21;13.90;;;7.53;;
30647;SDS011;17683;53.360;9.736;2022-12-18T14:59:48;17.58;;;9.10;;
30647;SDS011;17683;53.360;9.736;2022-12-18T15:02:21;15.68;;;7.78;;
30647;SDS011;17683;53.360;9.736;2022-12-18T15:05:00;19.10;;;9.75;;
30647;SDS011;17683;53.360;9.736;2022-12-18T15:07:34;18.88;;;9.32;;
30647;SDS011;17683;53.360;9.736;2022-12-18T15:10:10;18.00;;;9.18;;
30647;SDS011;17683;53.360;9.736;2022-12-18T15:13:05;20.13;;;9.32;;
30647;SDS011;17683;53.360;9.736;2022-12-18T15:20:32;22.55;;;10.18;;
30647;SDS011;17683;53.360;9.736;2022-12-18T15:23:12;20.40;;;11.20;;
30647;SDS011;17683;53.360;9.736;2022-12-18T15:25:44;26.85;;;13.20;;
30647;SDS011;17683;53.360;9.736;2022-12-18T15:28:19;22.17;;;11.40;;
30647;SDS011;17683;53.360;9.736;2022-12-18T15:31:01;24.92;;;11.73;;
30647;SDS011;17683;53.360;9.736;2022-12-18T15:33:35;24.55;;;12.07;;
30647;SDS011;17683;53.360;9.736;2022-12-18T15:36:04;31.75;;;13.13;;
30647;SDS011;17683;53.360;9.736;2022-12-18T15:38:33;26.98;;;12.32;;
30647;SDS011;17683;53.360;9.736;2022-12-18T15:40:59;29.10;;;14.75;;
30647;SDS011;17683;53.360;9.736;2022-12-18T15:43:25;28.33;;;13.77;;
30647;SDS011;17683;53.360;9.736;2022-12-18T15:46:02;30.55;;;14.25;;
30647;SDS011;17683;53.360;9.736;2022-12-18T15:48:28;29.08;;;15.68;;
30647;SDS011;17683;53.360;9.736;2022-12-18T15:50:54;31.70;;;14.15;;
30647;SDS011;17683;53.360;9.736;2022-12-18T15:53:22;34.80;;;16.10;;
30647;SDS011;17683;53.360;9.736;2022-12-18T15:55:50;27.40;;;14.30;;
30647;SDS011;17683;53.360;9.736;2022-12-18T15:58:35;27.75;;;14.38;;
30647;SDS011;17683;53.360;9.736;2022-12-18T16:01:01;33.67;;;14.63;;
30647;SDS011;17683;53.360;9.736;2022-12-18T16:03:27;31.65;;;14.27;;
30647;SDS011;17683;53.360;9.736;2022-12-18T16:05:53;36.95;;;15.27;;
30647;SDS011;17683;53.360;9.736;2022-12-18T16:08:18;29.33;;;15.25;;
30647;SDS011;17683;53.360;9.736;2022-12-18T16:10:44;32.15;;;14.73;;
30647;SDS011;17683;53.360;9.736;2022-12-18T16:13:10;29.92;;;14.80;;
30647;SDS011;17683;53.360;9.736;2022-12-18T16:15:40;33.35;;;15.82;;
30647;SDS011;17683;53.360;9.736;2022-12-18T16:18:06;31.23;;;15.50;;
30647;SDS011;17683;53.360;9.736;2022-12-18T16:20:32;33.97;;;15.95;;
30647;SDS011;17683;53.360;9.736;2022-12-18T16:22:58;28.25;;;14.77;;
30647;SDS011;17683;53.360;9.736;2022-12-18T16:25:25;30.23;;;15.43;;
30647;SDS011;17683;53.360;9.736;2022-12-18T16:27:52;31.80;;;14.95;;
30647;SDS011;17683;53.360;9.736;2022-12-18T16:30:22;34.95;;;15.70;;
30647;SDS011;17683;53.360;9.736;2022-12-18T16:32:54;32.95;;;15.45;;
30647;SDS011;17683;53.360;9.736;2022-12-18T16:35:20;32.75;;;16.23;;
30647;SDS011;17683;53.360;9.736;2022-12-18T16:37:46;30.52;;;15.75;;
30647;SDS011;17683;53.360;9.736;2022-12-18T16:40:13;27.75;;;14.60;;
30647;SDS011;17683;53.360;9.736;2022-12-18T16:42:41;32.45;;;14.43;;
30647;SDS011;17683;53.360;9.736;2022-12-18T16:45:08;31.90;;;15.30;;
30647;SDS011;17683;53.360;9.736;2022-12-18T16:47:36;33.22;;;15.27;;